createdAt,value
2023-05-01T00:00:58.589Z,0.00
2023-05-01T00:01:58.569Z,0.00
2023-05-01T00:02:58.617Z,0.00
2023-05-01T00:03:58.854Z,0.00
2023-05-01T00:04:58.568Z,0.00
2023-05-01T00:05:58.594Z,0.00
2023-05-01T00:07:58.514Z,0.00
2023-05-01T00:08:58.478Z,0.00
2023-05-01T00:09:58.796Z,0.00
2023-05-01T00:10:58.474Z,0.00
2023-05-01T00:11:58.437Z,0.00
2023-05-01T00:12:58.421Z,0.00
2023-05-01T00:13:58.410Z,0.00
2023-05-01T00:14:58.394Z,0.00
2023-05-01T00:15:58.426Z,0.00
2023-05-01T00:16:58.548Z,0.00
2023-05-01T00:17:58.460Z,0.00
2023-05-01T00:18:58.342Z,0.00
2023-05-01T00:19:58.644Z,0.00
2023-05-01T00:20:58.315Z,0.00
2023-05-01T00:21:58.342Z,0.00
2023-05-01T00:22:58.287Z,0.00
2023-05-01T00:23:58.276Z,0.00
2023-05-01T00:24:58.274Z,0.00
2023-05-01T00:25:58.248Z,0.00
2023-05-01T00:26:58.235Z,0.00
2023-05-01T00:27:58.225Z,0.00
2023-05-01T00:28:58.246Z,0.00
2023-05-01T00:29:58.446Z,0.00
2023-05-01T00:30:58.191Z,0.00
2023-05-01T00:31:58.209Z,0.00
2023-05-01T00:32:58.240Z,0.00
2023-05-01T00:33:58.150Z,0.00
2023-05-01T00:34:58.130Z,0.00
2023-05-01T00:35:58.120Z,0.00
2023-05-01T00:36:58.112Z,0.00
2023-05-01T00:37:58.140Z,0.00
2023-05-01T00:38:58.088Z,0.00
2023-05-01T00:39:58.372Z,0.00
2023-05-01T00:40:58.051Z,0.00
2023-05-01T00:41:58.040Z,0.00
2023-05-01T00:42:58.023Z,0.00
2023-05-01T00:43:58.019Z,0.00
2023-05-01T00:44:57.999Z,0.00
2023-05-01T00:45:58.017Z,0.00
2023-05-01T00:46:58.008Z,0.00
2023-05-01T00:47:58.025Z,0.00
2023-05-01T00:48:57.949Z,0.00
2023-05-01T00:49:58.160Z,0.00
2023-05-01T00:50:57.919Z,0.00
2023-05-01T00:51:57.910Z,0.00
2023-05-01T00:52:57.892Z,0.00
2023-05-01T00:53:57.902Z,0.00
2023-05-01T00:54:57.878Z,0.00
2023-05-01T00:55:57.855Z,0.00
2023-05-01T00:56:57.838Z,0.00
2023-05-01T00:57:57.829Z,0.00
2023-05-01T00:58:57.817Z,0.00
2023-05-01T00:59:58.022Z,0.00
2023-05-01T01:00:57.879Z,0.00
2023-05-01T01:01:57.776Z,0.00
2023-05-01T01:02:57.775Z,0.00
2023-05-01T01:03:57.781Z,0.00
2023-05-01T01:04:57.968Z,0.00
2023-05-01T01:05:57.736Z,0.00
2023-05-01T01:06:57.718Z,0.00
2023-05-01T01:07:57.693Z,0.00
2023-05-01T01:08:57.673Z,0.00
2023-05-01T01:09:58.095Z,0.00
2023-05-01T01:10:57.648Z,0.00
2023-05-01T01:11:57.636Z,0.00
2023-05-01T01:12:57.621Z,0.00
2023-05-01T01:13:57.611Z,0.00
2023-05-01T01:14:57.596Z,0.00
2023-05-01T01:16:57.598Z,0.00
2023-05-01T01:17:57.578Z,0.00
2023-05-01T01:18:57.555Z,0.00
2023-05-01T01:19:57.845Z,0.00
2023-05-01T01:20:57.520Z,0.00
2023-05-01T01:21:57.501Z,0.00
2023-05-01T01:22:57.490Z,0.00
2023-05-01T01:23:57.478Z,0.00
2023-05-01T01:24:57.498Z,0.00
2023-05-01T01:25:57.478Z,0.00
2023-05-01T01:26:57.437Z,0.00
2023-05-01T01:27:57.426Z,0.00
2023-05-01T01:28:57.412Z,0.00
2023-05-01T01:29:57.635Z,0.00
2023-05-01T01:30:57.437Z,0.00
2023-05-01T01:31:57.370Z,0.00
2023-05-01T01:32:57.410Z,0.00
2023-05-01T01:33:57.351Z,0.00
2023-05-01T01:34:57.343Z,0.00
2023-05-01T01:35:57.316Z,0.00
2023-05-01T01:36:57.302Z,0.00
2023-05-01T01:37:57.296Z,0.00
2023-05-01T01:38:57.275Z,0.00
2023-05-01T01:39:57.605Z,0.00
2023-05-01T01:40:57.248Z,0.00
2023-05-01T01:41:57.264Z,0.00
2023-05-01T01:42:57.228Z,0.00
2023-05-01T01:43:57.208Z,0.00
2023-05-01T01:44:57.200Z,0.00
2023-05-01T01:45:57.219Z,0.00
2023-05-01T01:46:57.180Z,0.00
2023-05-01T01:47:57.224Z,0.00
2023-05-01T01:48:57.151Z,0.00
2023-05-01T01:49:57.390Z,0.00
2023-05-01T01:50:57.120Z,0.00
2023-05-01T01:51:57.119Z,0.00
2023-05-01T01:52:57.090Z,0.00
2023-05-01T01:53:57.080Z,0.00
2023-05-01T01:54:57.063Z,0.00
2023-05-01T01:55:57.049Z,0.00
2023-05-01T01:56:57.037Z,0.00
2023-05-01T01:57:57.047Z,0.00
2023-05-01T01:58:57.014Z,0.00
2023-05-01T01:59:57.251Z,0.00
2023-05-01T02:00:56.981Z,0.00
2023-05-01T02:01:56.997Z,0.00
2023-05-01T02:02:57.005Z,0.00
2023-05-01T02:03:57.008Z,0.00
2023-05-01T02:04:56.932Z,0.00
2023-05-01T02:05:56.950Z,0.00
2023-05-01T02:06:56.904Z,0.00
2023-05-01T02:07:56.894Z,0.00
2023-05-01T02:08:56.886Z,0.00
2023-05-01T02:09:57.182Z,0.00
2023-05-01T02:10:56.860Z,0.00
2023-05-01T02:11:56.849Z,0.00
2023-05-01T02:12:56.853Z,0.00
2023-05-01T02:13:56.846Z,0.00
2023-05-01T02:14:56.807Z,0.00
2023-05-01T02:15:56.805Z,0.00
2023-05-01T02:16:56.774Z,0.00
2023-05-01T02:17:56.802Z,0.00
2023-05-01T02:18:56.752Z,0.00
2023-05-01T02:19:56.930Z,0.00
2023-05-01T02:20:56.721Z,0.00
2023-05-01T02:21:56.707Z,0.00
2023-05-01T02:22:56.699Z,0.00
2023-05-01T02:23:56.678Z,0.00
2023-05-01T02:24:56.667Z,0.00
2023-05-01T02:25:56.659Z,0.00
2023-05-01T02:26:56.646Z,0.00
2023-05-01T02:27:56.628Z,0.00
2023-05-01T02:28:56.614Z,0.00
2023-05-01T02:29:56.850Z,0.00
2023-05-01T02:30:56.592Z,0.00
2023-05-01T02:31:56.755Z,0.00
2023-05-01T02:32:56.588Z,0.00
2023-05-01T02:33:56.547Z,0.00
2023-05-01T02:34:56.534Z,0.00
2023-05-01T02:35:56.520Z,0.00
2023-05-01T02:36:56.510Z,0.00
2023-05-01T02:37:56.503Z,0.00
2023-05-01T02:38:56.482Z,0.00
2023-05-01T02:39:56.647Z,0.00
2023-05-01T02:40:56.454Z,0.00
2023-05-01T02:41:56.440Z,0.00
2023-05-01T02:42:56.429Z,0.00
2023-05-01T02:43:56.422Z,0.00
2023-05-01T02:44:56.405Z,0.00
2023-05-01T02:45:56.473Z,0.00
2023-05-01T02:46:56.450Z,0.00
2023-05-01T02:47:56.428Z,0.00
2023-05-01T02:48:56.354Z,0.00
2023-05-01T02:49:56.561Z,0.00
2023-05-01T02:50:56.337Z,0.00
2023-05-01T02:51:56.320Z,0.00
2023-05-01T02:52:56.302Z,0.00
2023-05-01T02:53:56.292Z,0.00
2023-05-01T02:54:56.272Z,0.00
2023-05-01T02:55:56.261Z,0.00
2023-05-01T02:56:56.249Z,0.00
2023-05-01T02:57:56.235Z,0.00
2023-05-01T02:58:56.231Z,0.00
2023-05-01T02:59:56.468Z,0.00
2023-05-01T03:00:56.253Z,0.00
2023-05-01T03:01:56.206Z,0.00
2023-05-01T03:02:56.221Z,0.00
2023-05-01T03:03:56.218Z,0.00
2023-05-01T03:04:56.151Z,0.00
2023-05-01T03:05:56.245Z,0.00
2023-05-01T03:06:56.120Z,0.00
2023-05-01T03:07:56.113Z,0.00
2023-05-01T03:08:56.096Z,0.00
2023-05-01T03:09:56.275Z,0.00
2023-05-01T03:10:56.073Z,0.00
2023-05-01T03:11:56.058Z,0.00
2023-05-01T03:12:56.045Z,0.00
2023-05-01T03:13:56.030Z,0.00
2023-05-01T03:14:56.017Z,0.00
2023-05-01T03:15:56.089Z,0.00
2023-05-01T03:16:56.088Z,0.00
2023-05-01T03:17:56.068Z,0.00
2023-05-01T03:18:55.977Z,0.00
2023-05-01T03:19:56.198Z,0.00
2023-05-01T03:20:55.942Z,0.00
2023-05-01T03:21:55.935Z,0.00
2023-05-01T03:22:55.913Z,0.00
2023-05-01T03:23:55.902Z,0.00
2023-05-01T03:24:55.892Z,0.00
2023-05-01T03:25:55.871Z,0.00
2023-05-01T03:26:55.862Z,0.00
2023-05-01T03:27:55.868Z,0.00
2023-05-01T03:28:55.842Z,0.00
2023-05-01T03:29:56.003Z,0.00
2023-05-01T03:30:55.808Z,0.00
2023-05-01T03:31:55.829Z,0.00
2023-05-01T03:32:55.859Z,0.00
2023-05-01T03:33:55.889Z,0.00
2023-05-01T03:34:55.818Z,0.00
2023-05-01T03:35:55.751Z,4.00
2023-05-01T03:36:55.737Z,4.00
2023-05-01T03:37:55.719Z,0.00
2023-05-01T03:38:55.710Z,0.00
2023-05-01T03:39:55.938Z,4.00
2023-05-01T03:40:55.684Z,4.00
2023-05-01T03:41:55.668Z,4.00
2023-05-01T03:42:55.649Z,4.00
2023-05-01T03:43:55.641Z,4.00
2023-05-01T03:44:55.625Z,8.00
2023-05-01T03:45:55.681Z,8.00
2023-05-01T03:46:55.625Z,8.00
2023-05-01T03:47:55.678Z,12.00
2023-05-01T03:48:55.583Z,12.00
2023-05-01T03:49:55.831Z,16.00
2023-05-01T03:50:55.569Z,16.00
2023-05-01T03:51:55.537Z,20.00
2023-05-01T03:52:55.526Z,24.00
2023-05-01T03:53:55.511Z,24.00
2023-05-01T03:54:55.506Z,28.00
2023-05-01T03:55:55.484Z,32.00
2023-05-01T03:56:55.485Z,36.00
2023-05-01T03:57:55.455Z,40.00
2023-05-01T03:58:55.457Z,40.00
2023-05-01T03:59:55.745Z,44.00
2023-05-01T04:00:55.432Z,48.00
2023-05-01T04:01:55.416Z,52.00
2023-05-01T04:02:55.594Z,60.00
2023-05-01T04:03:55.505Z,64.00
2023-05-01T04:04:55.378Z,68.00
2023-05-01T04:05:55.389Z,72.00
2023-05-01T04:06:55.381Z,80.00
2023-05-01T04:07:55.337Z,88.00
2023-05-01T04:08:55.320Z,92.00
2023-05-01T04:09:55.441Z,100.00
2023-05-01T04:10:55.293Z,104.00
2023-05-01T04:11:55.283Z,112.00
2023-05-01T04:12:55.272Z,120.00
2023-05-01T04:13:55.256Z,124.00
2023-05-01T04:14:55.244Z,132.00
2023-05-01T04:15:55.319Z,140.00
2023-05-01T04:16:55.225Z,148.00
2023-05-01T04:17:55.286Z,160.00
2023-05-01T04:18:55.204Z,172.00
2023-05-01T04:19:55.378Z,184.00
2023-05-01T04:20:55.168Z,196.00
2023-05-01T04:21:55.196Z,208.00
2023-05-01T04:22:55.168Z,220.00
2023-05-01T04:23:55.125Z,232.00
2023-05-01T04:24:55.126Z,240.00
2023-05-01T04:25:55.104Z,256.00
2023-05-01T04:26:55.090Z,264.00
2023-05-01T04:27:55.078Z,276.00
2023-05-01T04:28:55.062Z,288.00
2023-05-01T04:29:55.317Z,304.00
2023-05-01T04:30:55.035Z,316.00
2023-05-01T04:31:55.071Z,336.00
2023-05-01T04:32:55.089Z,352.00
2023-05-01T04:33:54.997Z,368.00
2023-05-01T04:34:54.990Z,384.00
2023-05-01T04:35:54.971Z,396.00
2023-05-01T04:36:54.955Z,412.00
2023-05-01T04:37:54.966Z,432.00
2023-05-01T04:38:54.940Z,444.00
2023-05-01T04:39:55.197Z,464.00
2023-05-01T04:40:54.905Z,480.00
2023-05-01T04:41:54.890Z,500.00
2023-05-01T04:42:54.880Z,520.00
2023-05-01T04:43:54.871Z,540.00
2023-05-01T04:44:54.876Z,568.00
2023-05-01T04:45:54.855Z,596.00
2023-05-01T04:46:54.852Z,624.00
2023-05-01T04:47:54.919Z,652.00
2023-05-01T04:48:54.809Z,680.00
2023-05-01T04:49:55.124Z,712.00
2023-05-01T04:50:54.784Z,748.00
2023-05-01T04:51:54.761Z,796.00
2023-05-01T04:52:54.745Z,852.00
2023-05-01T04:53:54.778Z,908.00
2023-05-01T04:54:54.734Z,968.00
2023-05-01T04:55:54.710Z,1016.00
2023-05-01T04:56:54.698Z,1060.00
2023-05-01T04:57:54.684Z,1112.00
2023-05-01T04:58:54.675Z,1164.00
2023-05-01T04:59:54.790Z,1216.00
2023-05-01T05:00:54.647Z,1268.00
2023-05-01T05:01:54.760Z,1316.00
2023-05-01T05:02:54.722Z,1372.00
2023-05-01T05:03:54.697Z,1436.00
2023-05-01T05:04:54.615Z,1500.00
2023-05-01T05:05:54.581Z,1572.00
2023-05-01T05:06:54.639Z,1624.00
2023-05-01T05:07:54.563Z,1672.00
2023-05-01T05:08:54.543Z,1708.00
2023-05-01T05:09:54.817Z,1740.00
2023-05-01T05:10:54.517Z,1772.00
2023-05-01T05:11:54.506Z,1804.00
2023-05-01T05:12:54.496Z,1844.00
2023-05-01T05:13:54.476Z,1888.00
2023-05-01T05:14:54.466Z,1936.00
2023-05-01T05:15:54.480Z,1992.00
2023-05-01T05:17:56.480Z,2096.00
2023-05-01T05:18:54.415Z,2152.00
2023-05-01T05:19:54.794Z,2228.00
2023-05-01T05:20:54.389Z,2292.00
2023-05-01T05:21:54.378Z,2344.00
2023-05-01T05:22:54.372Z,2392.00
2023-05-01T05:23:54.351Z,2440.00
2023-05-01T05:24:54.332Z,2488.00
2023-05-01T05:25:54.346Z,2540.00
2023-05-01T05:26:54.317Z,2596.00
2023-05-01T05:27:54.294Z,2664.00
2023-05-01T05:28:54.292Z,2752.00
2023-05-01T05:29:54.486Z,2868.00
2023-05-01T05:30:54.268Z,2996.00
2023-05-01T05:31:54.355Z,3140.00
2023-05-01T05:32:54.261Z,3276.00
2023-05-01T05:33:54.219Z,3424.00
2023-05-01T05:34:54.210Z,3556.00
2023-05-01T05:35:54.196Z,3688.00
2023-05-01T05:36:54.184Z,3796.00
2023-05-01T05:37:54.164Z,3892.00
2023-05-01T05:38:54.158Z,3956.00
2023-05-01T05:39:54.363Z,4000.00
2023-05-01T05:40:54.140Z,4052.00
2023-05-01T05:41:54.149Z,4108.00
2023-05-01T05:42:54.104Z,4180.00
2023-05-01T05:43:54.105Z,4248.00
2023-05-01T05:44:54.086Z,4316.00
2023-05-01T05:45:54.093Z,4368.00
2023-05-01T05:46:54.057Z,4424.00
2023-05-01T05:47:54.120Z,4476.00
2023-05-01T05:48:54.028Z,4532.00
2023-05-01T05:49:54.275Z,4572.00
2023-05-01T05:50:54.003Z,4588.00
2023-05-01T05:51:53.994Z,4620.00
2023-05-01T05:52:53.979Z,4668.00
2023-05-01T05:53:53.968Z,4732.00
2023-05-01T05:54:53.966Z,4828.00
2023-05-01T05:55:53.947Z,4876.00
2023-05-01T05:56:53.943Z,4876.00
2023-05-01T05:57:53.946Z,4860.00
2023-05-01T05:58:53.904Z,4848.00
2023-05-01T05:59:54.132Z,4840.00
2023-05-01T06:00:53.880Z,4852.00
2023-05-01T06:01:53.864Z,4876.00
2023-05-01T06:02:53.914Z,4940.00
2023-05-01T06:03:53.871Z,5036.00
2023-05-01T06:04:53.828Z,5168.00
2023-05-01T06:05:53.857Z,5300.00
2023-05-01T06:06:53.881Z,5412.00
2023-05-01T06:07:53.788Z,5512.00
2023-05-01T06:08:53.773Z,5584.00
2023-05-01T06:09:53.878Z,5648.00
2023-05-01T06:10:53.753Z,5712.00
2023-05-01T06:11:53.745Z,5780.00
2023-05-01T06:12:59.794Z,5868.00
2023-05-01T06:13:55.737Z,5944.00
2023-05-01T06:14:53.695Z,6000.00
2023-05-01T06:15:53.714Z,6028.00
2023-05-01T06:16:53.668Z,6028.00
2023-05-01T06:17:53.699Z,6008.00
2023-05-01T06:18:53.642Z,5956.00
2023-05-01T06:19:53.842Z,5884.00
2023-05-01T06:20:53.616Z,5796.00
2023-05-01T06:21:53.615Z,5704.00
2023-05-01T06:22:53.594Z,5604.00
2023-05-01T06:23:53.577Z,5500.00
2023-05-01T06:24:53.566Z,5408.00
2023-05-01T06:25:53.554Z,5340.00
2023-05-01T06:26:53.540Z,5296.00
2023-05-01T06:27:53.531Z,5280.00
2023-05-01T06:28:53.510Z,5268.00
2023-05-01T06:29:53.727Z,5276.00
2023-05-01T06:30:53.586Z,5308.00
2023-05-01T06:31:53.522Z,5368.00
2023-05-01T06:32:53.510Z,5452.00
2023-05-01T06:33:53.449Z,5560.00
2023-05-01T06:34:53.434Z,5684.00
2023-05-01T06:35:53.420Z,5832.00
2023-05-01T06:36:53.404Z,5976.00
2023-05-01T06:37:53.392Z,6144.00
2023-05-01T06:38:53.379Z,6328.00
2023-05-01T06:39:53.378Z,6532.00
2023-05-01T06:40:53.364Z,6752.00
2023-05-01T06:41:53.340Z,6968.00
2023-05-01T06:42:53.333Z,7180.00
2023-05-01T06:43:53.330Z,7404.00
2023-05-01T06:44:53.299Z,7656.00
2023-05-01T06:45:53.313Z,7908.00
2023-05-01T06:46:53.323Z,8156.00
2023-05-01T06:47:53.270Z,8424.00
2023-05-01T06:48:53.249Z,8720.00
2023-05-01T06:49:53.258Z,9016.00
2023-05-01T06:50:53.221Z,9296.00
2023-05-01T06:51:53.214Z,9580.00
2023-05-01T06:52:53.194Z,9836.00
2023-05-01T06:53:53.186Z,10136.00
2023-05-01T06:54:53.170Z,10500.00
2023-05-01T06:55:53.159Z,10960.00
2023-05-01T06:56:53.146Z,11584.00
2023-05-01T06:57:53.128Z,11804.00
2023-05-01T06:58:53.117Z,11988.00
2023-05-01T06:59:53.144Z,12324.00
2023-05-01T07:00:53.142Z,12604.00
2023-05-01T07:01:53.159Z,12644.00
2023-05-01T07:02:53.164Z,12748.00
2023-05-01T07:03:53.058Z,12812.00
2023-05-01T07:04:53.037Z,12976.00
2023-05-01T07:05:53.030Z,12932.00
2023-05-01T07:06:53.096Z,13092.00
2023-05-01T07:08:00.853Z,13328.00
2023-05-01T07:08:54.990Z,13528.00
2023-05-01T07:09:52.977Z,13828.00
2023-05-01T07:10:52.965Z,14220.00
2023-05-01T07:11:52.955Z,14680.00
2023-05-01T07:12:52.948Z,15184.00
2023-05-01T07:13:52.932Z,15752.00
2023-05-01T07:14:52.925Z,16672.00
2023-05-01T07:15:54.554Z,17728.00
2023-05-01T07:16:52.987Z,18432.00
2023-05-01T07:17:52.966Z,18784.00
2023-05-01T07:18:52.864Z,21952.00
2023-05-01T07:19:52.853Z,22848.00
2023-05-01T07:20:52.860Z,22432.00
2023-05-01T07:21:52.831Z,22112.00
2023-05-01T07:22:52.821Z,23520.00
2023-05-01T07:23:52.806Z,29088.00
2023-05-01T07:24:52.788Z,39648.00
2023-05-01T07:25:52.776Z,35744.00
2023-05-01T07:26:52.760Z,35328.00
2023-05-01T07:27:52.749Z,41920.00
2023-05-01T07:28:52.733Z,40448.00
2023-05-01T07:29:52.728Z,39808.00
2023-05-01T07:30:52.716Z,41536.00
2023-05-01T07:31:52.767Z,40032.00
2023-05-01T07:32:52.765Z,39872.00
2023-05-01T07:33:54.247Z,43584.00
2023-05-01T07:34:52.661Z,43936.00
2023-05-01T07:35:52.647Z,42368.00
2023-05-01T07:36:52.640Z,42176.00
2023-05-01T07:37:52.623Z,43936.00
2023-05-01T07:38:52.607Z,43008.00
2023-05-01T07:39:52.602Z,41792.00
2023-05-01T07:40:52.580Z,42976.00
2023-05-01T07:41:52.568Z,39296.00
2023-05-01T07:42:54.491Z,40000.00
2023-05-01T07:43:52.588Z,39424.00
2023-05-01T07:44:52.528Z,36096.00
2023-05-01T07:45:52.597Z,33120.00
2023-05-01T07:46:52.507Z,33024.00
2023-05-01T07:47:52.608Z,31680.00
2023-05-01T07:48:52.477Z,29728.00
2023-05-01T07:49:52.493Z,27360.00
2023-05-01T07:50:52.456Z,30176.00
2023-05-01T07:51:52.443Z,37248.00
2023-05-01T07:52:52.428Z,41664.00
2023-05-01T07:53:52.418Z,43808.00
2023-05-01T07:54:52.405Z,36256.00
2023-05-01T07:55:52.397Z,39040.00
2023-05-01T07:56:52.377Z,36864.00
2023-05-01T07:57:52.378Z,31840.00
2023-05-01T07:58:52.351Z,39456.00
2023-05-01T07:59:52.342Z,37792.00
2023-05-01T08:00:52.331Z,42912.00
2023-05-01T08:01:52.358Z,42080.00
2023-05-01T08:02:52.366Z,46080.00
2023-05-01T08:03:52.373Z,42880.00
2023-05-01T08:04:52.364Z,49056.00
2023-05-01T08:05:52.290Z,44608.00
2023-05-01T08:06:52.441Z,48480.00
2023-05-01T08:07:52.282Z,45216.00
2023-05-01T08:08:52.228Z,50848.00
2023-05-01T08:09:52.219Z,52608.00
2023-05-01T08:10:52.203Z,55680.00
2023-05-01T08:11:52.191Z,55648.00
2023-05-01T08:12:52.222Z,55456.00
2023-05-01T08:13:52.179Z,52608.00
2023-05-01T08:14:52.158Z,50752.00
2023-05-01T08:15:52.180Z,53056.00
2023-05-01T08:16:52.133Z,46624.00
2023-05-01T08:17:52.183Z,48352.00
2023-05-01T08:18:52.109Z,55936.00
2023-05-01T08:19:52.095Z,46464.00
2023-05-01T08:20:52.087Z,37024.00
2023-05-01T08:21:52.114Z,34816.00
2023-05-01T08:22:52.056Z,32896.00
2023-05-01T08:23:52.050Z,32032.00
2023-05-01T08:24:52.034Z,33920.00
2023-05-01T08:25:52.024Z,38624.00
2023-05-01T08:26:52.004Z,35232.00
2023-05-01T08:27:51.997Z,33984.00
2023-05-01T08:28:51.982Z,32224.00
2023-05-01T08:29:51.989Z,32288.00
2023-05-01T08:30:51.964Z,32576.00
2023-05-01T08:31:52.107Z,30624.00
2023-05-01T08:32:52.015Z,30656.00
2023-05-01T08:33:51.919Z,30720.00
2023-05-01T08:34:51.910Z,33056.00
2023-05-01T08:35:51.898Z,69792.00
2023-05-01T08:36:51.887Z,54912.00
2023-05-01T08:37:51.896Z,62272.00
2023-05-01T08:38:51.867Z,37536.00
2023-05-01T08:39:51.854Z,31776.00
2023-05-01T08:40:51.838Z,34400.00
2023-05-01T08:41:51.825Z,36544.00
2023-05-01T08:42:51.818Z,63648.00
2023-05-01T08:43:51.804Z,62688.00
2023-05-01T08:44:51.788Z,57920.00
2023-05-01T08:45:51.778Z,35392.00
2023-05-01T08:46:51.780Z,32384.00
2023-05-01T08:47:51.792Z,34528.00
2023-05-01T08:48:51.742Z,32576.00
2023-05-01T08:49:51.724Z,32576.00
2023-05-01T08:50:51.709Z,45408.00
2023-05-01T08:51:51.704Z,51168.00
2023-05-01T08:52:51.685Z,52320.00
2023-05-01T08:53:51.700Z,43936.00
2023-05-01T08:54:51.674Z,47296.00
2023-05-01T08:55:51.658Z,50432.00
2023-05-01T08:56:51.638Z,46400.00
2023-05-01T08:57:51.631Z,52992.00
2023-05-01T08:58:51.611Z,55936.00
2023-05-01T08:59:51.604Z,57120.00
2023-05-01T09:00:51.587Z,58016.00
2023-05-01T09:01:51.668Z,40064.00
2023-05-01T09:02:51.621Z,35072.00
2023-05-01T09:03:51.580Z,37440.00
2023-05-01T09:04:51.562Z,39104.00
2023-05-01T09:05:51.530Z,37280.00
2023-05-01T09:06:51.558Z,62816.00
2023-05-01T09:07:51.505Z,67232.00
2023-05-01T09:08:51.491Z,68576.00
2023-05-01T09:09:51.502Z,70048.00
2023-05-01T09:10:51.464Z,67840.00
2023-05-01T09:11:51.455Z,68736.00
2023-05-01T09:12:51.441Z,64256.00
2023-05-01T09:13:51.429Z,63776.00
2023-05-01T09:14:51.417Z,66336.00
2023-05-01T09:15:51.441Z,63840.00
2023-05-01T09:16:51.562Z,55136.00
2023-05-01T09:17:51.466Z,59520.00
2023-05-01T09:18:51.379Z,54080.00
2023-05-01T09:19:51.355Z,50080.00
2023-05-01T09:20:51.344Z,63584.00
2023-05-01T09:21:51.343Z,74080.00
2023-05-01T09:22:51.353Z,69216.00
2023-05-01T09:23:51.343Z,68320.00
2023-05-01T09:24:51.299Z,65984.00
2023-05-01T09:25:52.132Z,64256.00
2023-05-01T09:26:51.275Z,60672.00
2023-05-01T09:27:51.262Z,35744.00
2023-05-01T09:28:51.256Z,60352.00
2023-05-01T09:29:51.246Z,69280.00
2023-05-01T09:30:51.276Z,64416.00
2023-05-01T09:31:51.212Z,44544.00
2023-05-01T09:32:51.231Z,50976.00
2023-05-01T09:33:51.192Z,62368.00
2023-05-01T09:34:51.186Z,73536.00
2023-05-01T09:35:51.171Z,74240.00
2023-05-01T09:36:51.155Z,50464.00
2023-05-01T09:37:51.156Z,64864.00
2023-05-01T09:38:51.136Z,74432.00
2023-05-01T09:39:51.124Z,74016.00
2023-05-01T09:40:51.110Z,60320.00
2023-05-01T09:41:51.142Z,73792.00
2023-05-01T09:42:51.093Z,63616.00
2023-05-01T09:43:51.077Z,73440.00
2023-05-01T09:44:51.066Z,63136.00
2023-05-01T09:45:51.088Z,69728.00
2023-05-01T09:46:51.046Z,64288.00
2023-05-01T09:47:51.100Z,59200.00
2023-05-01T09:48:51.068Z,48576.00
2023-05-01T09:49:51.092Z,23744.00
2023-05-01T09:50:51.133Z,20992.00
2023-05-01T09:51:50.978Z,22816.00
2023-05-01T09:52:50.966Z,26272.00
2023-05-01T09:53:50.954Z,40320.00
2023-05-01T09:54:50.962Z,53824.00
2023-05-01T09:55:50.950Z,56288.00
2023-05-01T09:56:50.941Z,55712.00
2023-05-01T09:57:50.931Z,51424.00
2023-05-01T09:58:50.896Z,32576.00
2023-05-01T09:59:50.889Z,30944.00
2023-05-01T10:00:51.053Z,33472.00
2023-05-01T10:01:51.057Z,47904.00
2023-05-01T10:02:51.146Z,30944.00
2023-05-01T10:03:51.000Z,34304.00
2023-05-01T10:04:50.869Z,63840.00
2023-05-01T10:05:50.818Z,76544.00
2023-05-01T10:06:50.914Z,68928.00
2023-05-01T10:07:50.792Z,35296.00
2023-05-01T10:08:50.802Z,35072.00
2023-05-01T10:09:50.785Z,71296.00
2023-05-01T10:10:50.755Z,31488.00
2023-05-01T10:11:50.746Z,36864.00
2023-05-01T10:12:50.733Z,36800.00
2023-05-01T10:13:50.751Z,64320.00
2023-05-01T10:14:50.758Z,84160.00
2023-05-01T10:15:50.697Z,78880.00
2023-05-01T10:16:50.712Z,79968.00
2023-05-01T10:17:50.687Z,77120.00
2023-05-01T10:18:50.662Z,76960.00
2023-05-01T10:19:50.653Z,74208.00
2023-05-01T10:20:50.641Z,77312.00
2023-05-01T10:21:50.625Z,64256.00
2023-05-01T10:22:50.621Z,77376.00
2023-05-01T10:23:50.609Z,73920.00
2023-05-01T10:24:50.608Z,72928.00
2023-05-01T10:25:50.582Z,74336.00
2023-05-01T10:26:50.590Z,72160.00
2023-05-01T10:27:50.570Z,70464.00
2023-05-01T10:28:50.541Z,68864.00
2023-05-01T10:29:50.553Z,67712.00
2023-05-01T10:30:50.559Z,69344.00
2023-05-01T10:31:50.601Z,65216.00
2023-05-01T10:32:50.593Z,61152.00
2023-05-01T10:33:50.495Z,61184.00
2023-05-01T10:34:50.472Z,64000.00
2023-05-01T10:35:50.457Z,67808.00
2023-05-01T10:36:50.454Z,68800.00
2023-05-01T10:37:50.441Z,67168.00
2023-05-01T10:38:50.431Z,64512.00
2023-05-01T10:39:50.423Z,42240.00
2023-05-01T10:40:50.455Z,38880.00
2023-05-01T10:41:50.397Z,33088.00
2023-05-01T10:42:50.383Z,29184.00
2023-05-01T10:43:50.372Z,31840.00
2023-05-01T10:44:50.360Z,47712.00
2023-05-01T10:45:50.541Z,33504.00
2023-05-01T10:46:50.412Z,27040.00
2023-05-01T10:47:50.366Z,26240.00
2023-05-01T10:48:50.317Z,25632.00
2023-05-01T10:49:50.294Z,25888.00
2023-05-01T10:50:50.288Z,26528.00
2023-05-01T10:51:50.270Z,28800.00
2023-05-01T10:52:50.266Z,27712.00
2023-05-01T10:53:50.251Z,25952.00
2023-05-01T10:54:50.239Z,24928.00
2023-05-01T10:55:50.235Z,24832.00
2023-05-01T10:56:50.211Z,25216.00
2023-05-01T10:57:50.209Z,29536.00
2023-05-01T10:58:50.188Z,27104.00
2023-05-01T10:59:50.179Z,26752.00
2023-05-01T11:00:50.161Z,29952.00
2023-05-01T11:01:50.306Z,28448.00
2023-05-01T11:02:50.154Z,24352.00
2023-05-01T11:03:50.121Z,38176.00
2023-05-01T11:04:50.138Z,50016.00
2023-05-01T11:05:50.145Z,36000.00
2023-05-01T11:06:50.117Z,24448.00
2023-05-01T11:07:50.073Z,25376.00
2023-05-01T11:08:50.074Z,25216.00
2023-05-01T11:09:50.052Z,25472.00
2023-05-01T11:10:50.050Z,24704.00
2023-05-01T11:11:50.210Z,24064.00
2023-05-01T11:12:50.018Z,25024.00
2023-05-01T11:13:50.004Z,25184.00
2023-05-01T11:14:49.997Z,26400.00
2023-05-01T11:15:49.978Z,29728.00
2023-05-01T11:16:50.012Z,35232.00
2023-05-01T11:17:50.033Z,28288.00
2023-05-01T11:18:49.945Z,27808.00
2023-05-01T11:19:49.935Z,28000.00
2023-05-01T11:20:49.916Z,28448.00
2023-05-01T11:21:49.905Z,32160.00
2023-05-01T11:22:49.894Z,72160.00
2023-05-01T11:23:49.886Z,72256.00
2023-05-01T11:24:49.869Z,62048.00
2023-05-01T11:25:49.871Z,29152.00
2023-05-01T11:26:49.845Z,35552.00
2023-05-01T11:27:49.850Z,60608.00
2023-05-01T11:28:49.822Z,24768.00
2023-05-01T11:29:49.836Z,41056.00
2023-05-01T11:30:49.795Z,26304.00
2023-05-01T11:31:49.814Z,29792.00
2023-05-01T11:32:49.811Z,32064.00
2023-05-01T11:33:49.782Z,30048.00
2023-05-01T11:34:49.750Z,35712.00
2023-05-01T11:35:49.731Z,33472.00
2023-05-01T11:36:49.721Z,37888.00
2023-05-01T11:37:49.712Z,24448.00
2023-05-01T11:38:49.701Z,25792.00
2023-05-01T11:39:49.684Z,22720.00
2023-05-01T11:40:49.674Z,22816.00
2023-05-01T11:41:49.704Z,23392.00
2023-05-01T11:42:49.655Z,24544.00
2023-05-01T11:43:49.661Z,25440.00
2023-05-01T11:44:49.635Z,25088.00
2023-05-01T11:45:49.642Z,23168.00
2023-05-01T11:46:49.602Z,22304.00
2023-05-01T11:47:49.678Z,22464.00
2023-05-01T11:48:49.571Z,23200.00
2023-05-01T11:49:49.584Z,20800.00
2023-05-01T11:50:49.560Z,21536.00
2023-05-01T11:51:49.548Z,27424.00
2023-05-01T11:52:49.648Z,23776.00
2023-05-01T11:53:49.524Z,23520.00
2023-05-01T11:54:49.504Z,24896.00
2023-05-01T11:55:49.488Z,26240.00
2023-05-01T11:56:49.478Z,32896.00
2023-05-01T11:57:49.479Z,23328.00
2023-05-01T11:58:49.456Z,24000.00
2023-05-01T11:59:49.442Z,25568.00
2023-05-01T12:00:49.426Z,32640.00
2023-05-01T12:01:49.463Z,31776.00
2023-05-01T12:02:49.473Z,44512.00
2023-05-01T12:03:49.520Z,40544.00
2023-05-01T12:04:49.403Z,36864.00
2023-05-01T12:05:49.393Z,35776.00
2023-05-01T12:06:49.540Z,38496.00
2023-05-01T12:07:49.344Z,32800.00
2023-05-01T12:08:49.331Z,34528.00
2023-05-01T12:09:49.319Z,48320.00
2023-05-01T12:10:49.306Z,46496.00
2023-05-01T12:11:51.909Z,51840.00
2023-05-01T12:12:49.284Z,37856.00
2023-05-01T12:13:49.285Z,25312.00
2023-05-01T12:14:49.255Z,28992.00
2023-05-01T12:15:49.272Z,22528.00
2023-05-01T12:16:49.357Z,21440.00
2023-05-01T12:17:49.276Z,20768.00
2023-05-01T12:18:49.217Z,19872.00
2023-05-01T12:19:49.197Z,19136.00
2023-05-01T12:20:49.192Z,18368.00
2023-05-01T12:21:49.193Z,17568.00